sensor_id;sensor_type;location;lat;lon;timestamp;P1;durP1;ratioP1;P2;durP2;ratioP2
3817;SDS011;1924;48.078;11.516;2022-10-26T00:01:00;30.20;;;0.80;;
3817;SDS011;1924;48.078;11.516;2022-10-26T00:03:29;30.10;;;0.80;;
3817;SDS011;1924;48.078;11.516;2022-10-26T00:06:01;30.10;;;0.80;;
3817;SDS011;1924;48.078;11.516;2022-10-26T00:08:29;30.10;;;0.80;;
3817;SDS011;1924;48.078;11.516;2022-10-26T00:10:56;30.10;;;0.80;;
3817;SDS011;1924;48.078;11.516;2022-10-26T00:13:23;30.00;;;0.80;;
3817;SDS011;1924;48.078;11.516;2022-10-26T00:15:50;29.90;;;0.80;;
3817;SDS011;1924;48.078;11.516;2022-10-26T00:18:18;30.00;;;0.80;;
3817;SDS011;1924;48.078;11.516;2022-10-26T00:20:44;30.07;;;0.80;;
3817;SDS011;1924;48.078;11.516;2022-10-26T00:23:11;30.00;;;0.80;;
3817;SDS011;1924;48.078;11.516;2022-10-26T00:25:38;30.07;;;0.80;;
3817;SDS011;1924;48.078;11.516;2022-10-26T00:28:05;30.00;;;0.80;;
3817;SDS011;1924;48.078;11.516;2022-10-26T00:30:32;30.00;;;0.80;;
3817;SDS011;1924;48.078;11.516;2022-10-26T00:32:58;29.90;;;0.80;;
3817;SDS011;1924;48.078;11.516;2022-10-26T00:35:26;29.93;;;0.80;;
3817;SDS011;1924;48.078;11.516;2022-10-26T00:37:53;30.07;;;0.80;;
3817;SDS011;1924;48.078;11.516;2022-10-26T00:40:20;30.00;;;0.80;;
3817;SDS011;1924;48.078;11.516;2022-10-26T00:42:47;29.87;;;0.80;;
3817;SDS011;1924;48.078;11.516;2022-10-26T00:45:18;30.10;;;0.80;;
3817;SDS011;1924;48.078;11.516;2022-10-26T00:47:48;30.00;;;0.80;;
3817;SDS011;1924;48.078;11.516;2022-10-26T00:50:19;29.90;;;0.80;;
3817;SDS011;1924;48.078;11.516;2022-10-26T00:52:49;30.00;;;0.80;;
3817;SDS011;1924;48.078;11.516;2022-10-26T00:55:20;29.90;;;0.80;;
3817;SDS011;1924;48.078;11.516;2022-10-26T00:57:49;29.90;;;0.80;;
3817;SDS011;1924;48.078;11.516;2022-10-26T01:00:18;29.93;;;0.80;;
3817;SDS011;1924;48.078;11.516;2022-10-26T01:02:45;29.80;;;0.80;;
3817;SDS011;1924;48.078;11.516;2022-10-26T01:05:15;29.87;;;0.80;;
3817;SDS011;1924;48.078;11.516;2022-10-26T01:07:44;30.00;;;0.80;;
3817;SDS011;1924;48.078;11.516;2022-10-26T01:10:13;30.00;;;0.80;;
3817;SDS011;1924;48.078;11.516;2022-10-26T01:12:40;29.97;;;0.80;;
3817;SDS011;1924;48.078;11.516;2022-10-26T01:15:08;29.93;;;0.80;;
3817;SDS011;1924;48.078;11.516;2022-10-26T01:17:42;30.00;;;0.80;;
3817;SDS011;1924;48.078;11.516;2022-10-26T01:20:24;30.00;;;0.80;;
3817;SDS011;1924;48.078;11.516;2022-10-26T01:23:21;29.87;;;0.80;;
3817;SDS011;1924;48.078;11.516;2022-10-26T01:26:06;29.90;;;0.80;;
3817;SDS011;1924;48.078;11.516;2022-10-26T01:28:51;29.90;;;0.80;;
3817;SDS011;1924;48.078;11.516;2022-10-26T01:31:36;29.87;;;0.80;;
3817;SDS011;1924;48.078;11.516;2022-10-26T01:34:07;29.90;;;0.80;;
3817;SDS011;1924;48.078;11.516;2022-10-26T01:36:38;29.80;;;0.80;;
3817;SDS011;1924;48.078;11.516;2022-10-26T01:39:09;29.90;;;0.80;;
3817;SDS011;1924;48.078;11.516;2022-10-26T01:41:43;30.00;;;0.80;;
3817;SDS011;1924;48.078;11.516;2022-10-26T01:44:13;30.00;;;0.80;;
3817;SDS011;1924;48.078;11.516;2022-10-26T01:46:45;29.90;;;0.80;;
3817;SDS011;1924;48.078;11.516;2022-10-26T01:49:15;30.00;;;0.80;;
3817;SDS011;1924;48.078;11.516;2022-10-26T01:51:48;30.07;;;0.80;;
3817;SDS011;1924;48.078;11.516;2022-10-26T01:54:15;29.97;;;0.80;;
3817;SDS011;1924;48.078;11.516;2022-10-26T01:56:42;29.93;;;0.80;;
3817;SDS011;1924;48.078;11.516;2022-10-26T01:59:14;30.10;;;0.80;;
3817;SDS011;1924;48.078;11.516;2022-10-26T02:02:18;30.00;;;0.80;;
3817;SDS011;1924;48.078;11.516;2022-10-26T02:05:09;29.90;;;0.80;;
3817;SDS011;1924;48.078;11.516;2022-10-26T02:07:54;29.87;;;0.80;;
3817;SDS011;1924;48.078;11.516;2022-10-26T02:10:29;29.97;;;0.80;;
3817;SDS011;1924;48.078;11.516;2022-10-26T02:13:07;29.90;;;0.80;;
3817;SDS011;1924;48.078;11.516;2022-10-26T02:15:45;29.90;;;0.80;;
3817;SDS011;1924;48.078;11.516;2022-10-26T02:18:21;29.90;;;0.80;;
3817;SDS011;1924;48.078;11.516;2022-10-26T02:20:56;30.00;;;0.80;;
3817;SDS011;1924;48.078;11.516;2022-10-26T02:23:26;29.83;;;0.80;;
3817;SDS011;1924;48.078;11.516;2022-10-26T02:25:55;29.80;;;0.80;;
3817;SDS011;1924;48.078;11.516;2022-10-26T02:28:26;29.90;;;0.80;;
3817;SDS011;1924;48.078;11.516;2022-10-26T04:00:41;29.90;;;0.80;;
3817;SDS011;1924;48.078;11.516;2022-10-26T04:03:07;30.00;;;0.80;;
3817;SDS011;1924;48.078;11.516;2022-10-26T04:05:35;29.77;;;0.80;;
3817;SDS011;1924;48.078;11.516;2022-10-26T04:08:02;29.80;;;0.80;;
3817;SDS011;1924;48.078;11.516;2022-10-26T04:10:29;29.90;;;0.80;;
3817;SDS011;1924;48.078;11.516;2022-10-26T04:12:56;30.00;;;0.80;;
3817;SDS011;1924;48.078;11.516;2022-10-26T04:15:25;30.00;;;0.80;;
3817;SDS011;1924;48.078;11.516;2022-10-26T04:17:56;29.90;;;0.80;;
3817;SDS011;1924;48.078;11.516;2022-10-26T04:20:24;29.93;;;0.80;;
3817;SDS011;1924;48.078;11.516;2022-10-26T04:22:56;30.00;;;0.80;;
3817;SDS011;1924;48.078;11.516;2022-10-26T04:25:23;30.10;;;0.80;;
3817;SDS011;1924;48.078;11.516;2022-10-26T04:27:50;30.00;;;0.80;;
3817;SDS011;1924;48.078;11.516;2022-10-26T04:30:17;30.07;;;0.80;;
3817;SDS011;1924;48.078;11.516;2022-10-26T04:32:44;30.10;;;0.80;;
3817;SDS011;1924;48.078;11.516;2022-10-26T04:35:12;29.83;;;0.80;;
3817;SDS011;1924;48.078;11.516;2022-10-26T04:37:39;30.00;;;0.80;;
3817;SDS011;1924;48.078;11.516;2022-10-26T04:40:06;29.90;;;0.80;;
3817;SDS011;1924;48.078;11.516;2022-10-26T04:42:39;30.00;;;0.80;;
3817;SDS011;1924;48.078;11.516;2022-10-26T04:45:07;30.00;;;0.80;;
3817;SDS011;1924;48.078;11.516;2022-10-26T04:47:34;30.00;;;0.80;;
3817;SDS011;1924;48.078;11.516;2022-10-26T04:50:01;30.07;;;0.80;;
3817;SDS011;1924;48.078;11.516;2022-10-26T04:52:29;30.10;;;0.80;;
3817;SDS011;1924;48.078;11.516;2022-10-26T04:54:56;29.97;;;0.80;;
3817;SDS011;1924;48.078;11.516;2022-10-26T04:57:23;30.00;;;0.80;;
3817;SDS011;1924;48.078;11.516;2022-10-26T04:59:49;30.10;;;0.80;;
3817;SDS011;1924;48.078;11.516;2022-10-26T05:02:19;30.10;;;0.80;;
3817;SDS011;1924;48.078;11.516;2022-10-26T05:04:46;30.10;;;0.80;;
3817;SDS011;1924;48.078;11.516;2022-10-26T05:07:13;30.00;;;0.77;;
3817;SDS011;1924;48.078;11.516;2022-10-26T05:09:42;30.07;;;0.80;;
3817;SDS011;1924;48.078;11.516;2022-10-26T05:12:09;30.00;;;0.80;;
3817;SDS011;1924;48.078;11.516;2022-10-26T05:14:35;30.10;;;0.80;;
3817;SDS011;1924;48.078;11.516;2022-10-26T05:17:02;29.97;;;0.80;;
3817;SDS011;1924;48.078;11.516;2022-10-26T05:19:29;30.00;;;0.80;;
3817;SDS011;1924;48.078;11.516;2022-10-26T05:21:56;30.00;;;0.80;;
3817;SDS011;1924;48.078;11.516;2022-10-26T05:24:22;30.00;;;0.80;;
3817;SDS011;1924;48.078;11.516;2022-10-26T05:26:50;30.20;;;0.80;;
3817;SDS011;1924;48.078;11.516;2022-10-26T05:29:17;30.17;;;0.80;;
3817;SDS011;1924;48.078;11.516;2022-10-26T05:31:44;30.30;;;0.80;;
3817;SDS011;1924;48.078;11.516;2022-10-26T05:34:10;30.30;;;0.80;;
3817;SDS011;1924;48.078;11.516;2022-10-26T05:36:37;30.30;;;0.80;;
3817;SDS011;1924;48.078;11.516;2022-10-26T05:39:04;30.30;;;0.80;;
3817;SDS011;1924;48.078;11.516;2022-10-26T05:41:31;30.37;;;0.80;;
3817;SDS011;1924;48.078;11.516;2022-10-26T05:43:59;30.50;;;0.80;;
3817;SDS011;1924;48.078;11.516;2022-10-26T05:46:25;30.40;;;0.80;;
3817;SDS011;1924;48.078;11.516;2022-10-26T05:48:52;30.50;;;0.80;;
3817;SDS011;1924;48.078;11.516;2022-10-26T05:51:19;30.40;;;0.80;;
3817;SDS011;1924;48.078;11.516;2022-10-26T05:53:46;30.37;;;0.80;;
3817;SDS011;1924;48.078;11.516;2022-10-26T05:56:15;30.30;;;0.80;;
3817;SDS011;1924;48.078;11.516;2022-10-26T05:58:45;30.47;;;0.80;;
3817;SDS011;1924;48.078;11.516;2022-10-26T06:01:15;30.60;;;0.80;;
3817;SDS011;1924;48.078;11.516;2022-10-26T06:03:53;30.50;;;0.80;;
3817;SDS011;1924;48.078;11.516;2022-10-26T06:06:33;30.40;;;0.80;;
3817;SDS011;1924;48.078;11.516;2022-10-26T06:09:04;30.60;;;0.80;;
3817;SDS011;1924;48.078;11.516;2022-10-26T06:11:31;30.57;;;0.80;;
3817;SDS011;1924;48.078;11.516;2022-10-26T06:13:59;30.53;;;0.80;;
3817;SDS011;1924;48.078;11.516;2022-10-26T06:16:30;30.57;;;0.80;;
3817;SDS011;1924;48.078;11.516;2022-10-26T06:19:05;30.50;;;0.80;;
3817;SDS011;1924;48.078;11.516;2022-10-26T06:21:46;30.60;;;0.80;;
3817;SDS011;1924;48.078;11.516;2022-10-26T06:24:23;30.60;;;0.80;;
3817;SDS011;1924;48.078;11.516;2022-10-26T06:26:57;30.60;;;0.80;;
3817;SDS011;1924;48.078;11.516;2022-10-26T06:29:31;30.67;;;0.80;;
3817;SDS011;1924;48.078;11.516;2022-10-26T06:32:07;30.60;;;0.80;;
3817;SDS011;1924;48.078;11.516;2022-10-26T06:34:35;30.60;;;0.80;;
3817;SDS011;1924;48.078;11.516;2022-10-26T06:37:04;30.67;;;0.70;;
3817;SDS011;1924;48.078;11.516;2022-10-26T06:39:34;30.60;;;0.80;;
3817;SDS011;1924;48.078;11.516;2022-10-26T06:42:04;30.73;;;0.80;;
3817;SDS011;1924;48.078;11.516;2022-10-26T06:44:31;30.70;;;0.80;;
3817;SDS011;1924;48.078;11.516;2022-10-26T06:47:00;30.80;;;0.80;;
3817;SDS011;1924;48.078;11.516;2022-10-26T06:49:35;30.67;;;0.80;;
3817;SDS011;1924;48.078;11.516;2022-10-26T06:52:08;30.70;;;0.80;;
3817;SDS011;1924;48.078;11.516;2022-10-26T06:54:44;30.67;;;0.80;;
3817;SDS011;1924;48.078;11.516;2022-10-26T06:57:14;30.70;;;0.80;;
3817;SDS011;1924;48.078;11.516;2022-10-26T06:59:42;30.70;;;0.80;;
3817;SDS011;1924;48.078;11.516;2022-10-26T07:02:11;30.60;;;0.80;;
3817;SDS011;1924;48.078;11.516;2022-10-26T07:04:40;30.57;;;0.80;;
3817;SDS011;1924;48.078;11.516;2022-10-26T07:07:08;30.67;;;0.80;;
3817;SDS011;1924;48.078;11.516;2022-10-26T07:09:36;30.60;;;0.80;;
3817;SDS011;1924;48.078;11.516;2022-10-26T07:12:02;30.70;;;0.80;;
3817;SDS011;1924;48.078;11.516;2022-10-26T07:14:29;30.63;;;0.80;;
3817;SDS011;1924;48.078;11.516;2022-10-26T07:16:56;30.80;;;0.80;;
3817;SDS011;1924;48.078;11.516;2022-10-26T07:19:23;30.47;;;0.80;;
3817;SDS011;1924;48.078;11.516;2022-10-26T07:21:52;30.70;;;0.80;;
3817;SDS011;1924;48.078;11.516;2022-10-26T07:24:20;30.70;;;0.80;;
3817;SDS011;1924;48.078;11.516;2022-10-26T07:26:47;30.67;;;0.80;;
3817;SDS011;1924;48.078;11.516;2022-10-26T07:29:14;30.53;;;0.80;;
3817;SDS011;1924;48.078;11.516;2022-10-26T07:31:42;30.70;;;0.80;;
3817;SDS011;1924;48.078;11.516;2022-10-26T07:34:08;30.60;;;0.80;;
3817;SDS011;1924;48.078;11.516;2022-10-26T07:36:35;30.60;;;0.80;;
3817;SDS011;1924;48.078;11.516;2022-10-26T07:39:04;31.20;;;0.90;;
3817;SDS011;1924;48.078;11.516;2022-10-26T07:41:31;30.50;;;0.80;;
3817;SDS011;1924;48.078;11.516;2022-10-26T07:43:59;30.57;;;0.80;;
3817;SDS011;1924;48.078;11.516;2022-10-26T07:46:25;30.63;;;0.80;;
3817;SDS011;1924;48.078;11.516;2022-10-26T07:48:52;30.70;;;0.80;;
3817;SDS011;1924;48.078;11.516;2022-10-26T07:51:19;30.50;;;0.80;;
3817;SDS011;1924;48.078;11.516;2022-10-26T07:53:46;30.50;;;0.80;;
3817;SDS011;1924;48.078;11.516;2022-10-26T07:56:14;30.67;;;0.80;;
3817;SDS011;1924;48.078;11.516;2022-10-26T07:58:41;30.60;;;0.77;;
3817;SDS011;1924;48.078;11.516;2022-10-26T08:01:08;30.63;;;0.80;;
3817;SDS011;1924;48.078;11.516;2022-10-26T08:03:36;30.67;;;0.80;;
3817;SDS011;1924;48.078;11.516;2022-10-26T08:06:02;30.50;;;0.80;;
3817;SDS011;1924;48.078;11.516;2022-10-26T08:08:30;30.67;;;0.80;;
3817;SDS011;1924;48.078;11.516;2022-10-26T08:10:57;30.70;;;0.80;;
3817;SDS011;1924;48.078;11.516;2022-10-26T08:13:25;30.60;;;0.80;;
3817;SDS011;1924;48.078;11.516;2022-10-26T08:15:55;30.70;;;0.80;;
3817;SDS011;1924;48.078;11.516;2022-10-26T08:18:22;30.60;;;0.80;;
3817;SDS011;1924;48.078;11.516;2022-10-26T08:20:49;30.77;;;0.80;;
3817;SDS011;1924;48.078;11.516;2022-10-26T08:23:16;30.60;;;0.80;;
3817;SDS011;1924;48.078;11.516;2022-10-26T08:25:43;30.73;;;0.80;;
3817;SDS011;1924;48.078;11.516;2022-10-26T08:28:09;30.77;;;0.80;;
3817;SDS011;1924;48.078;11.516;2022-10-26T08:30:37;30.77;;;0.80;;
3817;SDS011;1924;48.078;11.516;2022-10-26T08:33:06;30.77;;;0.80;;
3817;SDS011;1924;48.078;11.516;2022-10-26T08:35:34;30.83;;;0.80;;
3817;SDS011;1924;48.078;11.516;2022-10-26T08:38:01;30.87;;;0.80;;
3817;SDS011;1924;48.078;11.516;2022-10-26T08:40:29;30.77;;;0.80;;
3817;SDS011;1924;48.078;11.516;2022-10-26T08:42:59;30.73;;;0.80;;
3817;SDS011;1924;48.078;11.516;2022-10-26T08:45:30;30.90;;;0.80;;
3817;SDS011;1924;48.078;11.516;2022-10-26T08:48:04;31.00;;;0.80;;
3817;SDS011;1924;48.078;11.516;2022-10-26T08:50:36;31.00;;;0.80;;
3817;SDS011;1924;48.078;11.516;2022-10-26T08:53:08;30.80;;;0.80;;
3817;SDS011;1924;48.078;11.516;2022-10-26T08:55:43;31.10;;;0.80;;
3817;SDS011;1924;48.078;11.516;2022-10-26T08:58:23;31.10;;;0.80;;
3817;SDS011;1924;48.078;11.516;2022-10-26T09:00:53;31.10;;;0.80;;
3817;SDS011;1924;48.078;11.516;2022-10-26T09:03:21;31.10;;;0.80;;
3817;SDS011;1924;48.078;11.516;2022-10-26T09:05:57;31.20;;;0.80;;
3817;SDS011;1924;48.078;11.516;2022-10-26T09:08:34;31.10;;;0.80;;
3817;SDS011;1924;48.078;11.516;2022-10-26T09:11:14;31.20;;;0.80;;
3817;SDS011;1924;48.078;11.516;2022-10-26T09:13:53;31.17;;;0.80;;
3817;SDS011;1924;48.078;11.516;2022-10-26T09:16:27;31.30;;;0.80;;
3817;SDS011;1924;48.078;11.516;2022-10-26T09:19:03;31.27;;;0.80;;
3817;SDS011;1924;48.078;11.516;2022-10-26T09:21:47;31.20;;;0.80;;
3817;SDS011;1924;48.078;11.516;2022-10-26T09:24:20;31.23;;;0.80;;
3817;SDS011;1924;48.078;11.516;2022-10-26T09:26:54;31.20;;;0.80;;
3817;SDS011;1924;48.078;11.516;2022-10-26T09:29:24;31.40;;;0.80;;
3817;SDS011;1924;48.078;11.516;2022-10-26T09:31:53;31.47;;;0.80;;
3817;SDS011;1924;48.078;11.516;2022-10-26T09:34:27;31.57;;;0.80;;
3817;SDS011;1924;48.078;11.516;2022-10-26T09:36:57;31.47;;;0.80;;
3817;SDS011;1924;48.078;11.516;2022-10-26T09:39:34;31.47;;;0.80;;
3817;SDS011;1924;48.078;11.516;2022-10-26T09:42:06;31.40;;;0.80;;
3817;SDS011;1924;48.078;11.516;2022-10-26T09:44:42;31.30;;;0.77;;
3817;SDS011;1924;48.078;11.516;2022-10-26T09:47:15;31.40;;;0.80;;
3817;SDS011;1924;48.078;11.516;2022-10-26T09:49:57;31.40;;;0.80;;
3817;SDS011;1924;48.078;11.516;2022-10-26T09:52:28;31.40;;;0.80;;
3817;SDS011;1924;48.078;11.516;2022-10-26T09:54:55;31.40;;;0.80;;
3817;SDS011;1924;48.078;11.516;2022-10-26T09:57:22;31.40;;;0.80;;
3817;SDS011;1924;48.078;11.516;2022-10-26T09:59:50;31.40;;;0.80;;
3817;SDS011;1924;48.078;11.516;2022-10-26T10:02:35;31.47;;;0.80;;
3817;SDS011;1924;48.078;11.516;2022-10-26T10:07:48;31.27;;;0.80;;
3817;SDS011;1924;48.078;11.516;2022-10-26T10:10:16;31.37;;;0.80;;
3817;SDS011;1924;48.078;11.516;2022-10-26T10:12:44;31.20;;;0.80;;
3817;SDS011;1924;48.078;11.516;2022-10-26T10:15:16;31.27;;;0.80;;
3817;SDS011;1924;48.078;11.516;2022-10-26T10:17:48;31.27;;;0.80;;
3817;SDS011;1924;48.078;11.516;2022-10-26T10:20:19;31.30;;;0.80;;
3817;SDS011;1924;48.078;11.516;2022-10-26T10:22:56;31.20;;;0.80;;
3817;SDS011;1924;48.078;11.516;2022-10-26T10:25:31;31.20;;;0.80;;
3817;SDS011;1924;48.078;11.516;2022-10-26T10:27:59;31.10;;;0.80;;
3817;SDS011;1924;48.078;11.516;2022-10-26T10:30:28;31.10;;;0.80;;
3817;SDS011;1924;48.078;11.516;2022-10-26T10:33:03;31.07;;;0.70;;
3817;SDS011;1924;48.078;11.516;2022-10-26T10:35:33;30.93;;;0.80;;
3817;SDS011;1924;48.078;11.516;2022-10-26T10:38:00;31.10;;;0.80;;
3817;SDS011;1924;48.078;11.516;2022-10-26T10:40:27;31.10;;;0.77;;
3817;SDS011;1924;48.078;11.516;2022-10-26T10:43:02;31.03;;;0.80;;
3817;SDS011;1924;48.078;11.516;2022-10-26T10:45:31;30.93;;;0.80;;
3817;SDS011;1924;48.078;11.516;2022-10-26T10:48:00;31.00;;;0.80;;
3817;SDS011;1924;48.078;11.516;2022-10-26T10:50:28;31.17;;;0.80;;
3817;SDS011;1924;48.078;11.516;2022-10-26T10:55:41;31.00;;;0.80;;
3817;SDS011;1924;48.078;11.516;2022-10-26T10:58:16;30.97;;;0.80;;
3817;SDS011;1924;48.078;11.516;2022-10-26T11:00:48;30.90;;;0.70;;
3817;SDS011;1924;48.078;11.516;2022-10-26T11:03:21;31.00;;;0.80;;
3817;SDS011;1924;48.078;11.516;2022-10-26T11:06:03;30.90;;;0.80;;
3817;SDS011;1924;48.078;11.516;2022-10-26T11:08:38;30.93;;;0.77;;
3817;SDS011;1924;48.078;11.516;2022-10-26T11:11:10;30.80;;;0.80;;
3817;SDS011;1924;48.078;11.516;2022-10-26T11:13:49;30.90;;;0.80;;
3817;SDS011;1924;48.078;11.516;2022-10-26T11:16:46;30.90;;;0.80;;
3817;SDS011;1924;48.078;11.516;2022-10-26T11:19:36;30.90;;;0.80;;
3817;SDS011;1924;48.078;11.516;2022-10-26T11:22:09;30.80;;;0.80;;
3817;SDS011;1924;48.078;11.516;2022-10-26T11:24:42;30.80;;;0.80;;
3817;SDS011;1924;48.078;11.516;2022-10-26T11:27:13;30.80;;;0.80;;
3817;SDS011;1924;48.078;11.516;2022-10-26T11:29:44;30.80;;;0.80;;
3817;SDS011;1924;48.078;11.516;2022-10-26T11:32:18;30.80;;;0.77;;
3817;SDS011;1924;48.078;11.516;2022-10-26T11:34:49;30.80;;;0.80;;
3817;SDS011;1924;48.078;11.516;2022-10-26T11:37:21;30.90;;;0.80;;
3817;SDS011;1924;48.078;11.516;2022-10-26T11:40:01;30.80;;;0.80;;
3817;SDS011;1924;48.078;11.516;2022-10-26T11:42:31;30.70;;;0.80;;
3817;SDS011;1924;48.078;11.516;2022-10-26T11:45:07;30.77;;;0.80;;
3817;SDS011;1924;48.078;11.516;2022-10-26T11:47:41;30.70;;;0.80;;
3817;SDS011;1924;48.078;11.516;2022-10-26T11:50:14;30.80;;;0.80;;
3817;SDS011;1924;48.078;11.516;2022-10-26T11:52:46;30.67;;;0.80;;
3817;SDS011;1924;48.078;11.516;2022-10-26T11:55:19;30.70;;;0.80;;
3817;SDS011;1924;48.078;11.516;2022-10-26T11:57:48;30.73;;;0.80;;
3817;SDS011;1924;48.078;11.516;2022-10-26T12:00:18;30.50;;;0.80;;
3817;SDS011;1924;48.078;11.516;2022-10-26T12:02:47;30.47;;;0.80;;
3817;SDS011;1924;48.078;11.516;2022-10-26T12:05:22;30.70;;;0.80;;
3817;SDS011;1924;48.078;11.516;2022-10-26T12:07:53;30.67;;;0.80;;
3817;SDS011;1924;48.078;11.516;2022-10-26T12:10:26;30.50;;;0.80;;
3817;SDS011;1924;48.078;11.516;2022-10-26T12:12:59;30.40;;;0.70;;
3817;SDS011;1924;48.078;11.516;2022-10-26T12:15:33;30.50;;;0.80;;
3817;SDS011;1924;48.078;11.516;2022-10-26T12:18:10;30.57;;;0.80;;
3817;SDS011;1924;48.078;11.516;2022-10-26T12:20:54;30.40;;;0.77;;
3817;SDS011;1924;48.078;11.516;2022-10-26T12:23:26;30.60;;;0.80;;
3817;SDS011;1924;48.078;11.516;2022-10-26T12:29:26;30.27;;;0.70;;
3817;SDS011;1924;48.078;11.516;2022-10-26T12:32:02;30.50;;;0.73;;
3817;SDS011;1924;48.078;11.516;2022-10-26T12:37:28;30.53;;;0.80;;
3817;SDS011;1924;48.078;11.516;2022-10-26T12:58:37;30.60;;;0.80;;
3817;SDS011;1924;48.078;11.516;2022-10-26T13:01:46;30.47;;;0.80;;
3817;SDS011;1924;48.078;11.516;2022-10-26T13:04:36;30.60;;;0.80;;
3817;SDS011;1924;48.078;11.516;2022-10-26T13:07:33;30.57;;;0.80;;
3817;SDS011;1924;48.078;11.516;2022-10-26T13:10:03;30.50;;;0.80;;
3817;SDS011;1924;48.078;11.516;2022-10-26T13:12:37;30.63;;;0.70;;
3817;SDS011;1924;48.078;11.516;2022-10-26T13:15:18;30.57;;;0.80;;
3817;SDS011;1924;48.078;11.516;2022-10-26T13:18:00;30.50;;;0.80;;
3817;SDS011;1924;48.078;11.516;2022-10-26T13:20:33;30.40;;;0.80;;
3817;SDS011;1924;48.078;11.516;2022-10-26T13:23:10;30.40;;;0.77;;
3817;SDS011;1924;48.078;11.516;2022-10-26T13:25:41;30.40;;;0.80;;
3817;SDS011;1924;48.078;11.516;2022-10-26T13:31:09;30.30;;;0.80;;
3817;SDS011;1924;48.078;11.516;2022-10-26T13:33:41;30.40;;;0.80;;
3817;SDS011;1924;48.078;11.516;2022-10-26T13:36:13;30.37;;;0.80;;
3817;SDS011;1924;48.078;11.516;2022-10-26T13:38:45;30.27;;;0.80;;
3817;SDS011;1924;48.078;11.516;2022-10-26T13:41:18;30.27;;;0.70;;
3817;SDS011;1924;48.078;11.516;2022-10-26T13:43:50;30.40;;;0.80;;
3817;SDS011;1924;48.078;11.516;2022-10-26T13:46:21;30.30;;;0.80;;
3817;SDS011;1924;48.078;11.516;2022-10-26T13:48:52;30.23;;;0.80;;
3817;SDS011;1924;48.078;11.516;2022-10-26T13:51:24;30.17;;;0.70;;
3817;SDS011;1924;48.078;11.516;2022-10-26T13:53:59;30.40;;;0.80;;
3817;SDS011;1924;48.078;11.516;2022-10-26T13:56:32;30.30;;;0.77;;
3817;SDS011;1924;48.078;11.516;2022-10-26T13:59:03;30.20;;;0.80;;
3817;SDS011;1924;48.078;11.516;2022-10-26T14:01:34;30.40;;;0.80;;
3817;SDS011;1924;48.078;11.516;2022-10-26T14:04:13;30.40;;;0.80;;
3817;SDS011;1924;48.078;11.516;2022-10-26T14:06:40;30.30;;;0.80;;
3817;SDS011;1924;48.078;11.516;2022-10-26T14:09:13;30.40;;;0.70;;
3817;SDS011;1924;48.078;11.516;2022-10-26T14:11:43;30.30;;;0.80;;
3817;SDS011;1924;48.078;11.516;2022-10-26T14:14:15;30.60;;;0.80;;
3817;SDS011;1924;48.078;11.516;2022-10-26T14:16:45;30.30;;;0.80;;
3817;SDS011;1924;48.078;11.516;2022-10-26T14:19:14;30.30;;;0.70;;
3817;SDS011;1924;48.078;11.516;2022-10-26T14:21:47;30.40;;;0.80;;
3817;SDS011;1924;48.078;11.516;2022-10-26T14:24:18;30.37;;;0.80;;
3817;SDS011;1924;48.078;11.516;2022-10-26T14:26:47;30.40;;;0.80;;
3817;SDS011;1924;48.078;11.516;2022-10-26T14:29:16;30.57;;;0.80;;
3817;SDS011;1924;48.078;11.516;2022-10-26T14:31:44;30.57;;;0.80;;
3817;SDS011;1924;48.078;11.516;2022-10-26T14:34:13;30.33;;;0.70;;
3817;SDS011;1924;48.078;11.516;2022-10-26T14:36:40;31.23;;;1.00;;
3817;SDS011;1924;48.078;11.516;2022-10-26T14:39:14;30.40;;;0.77;;
3817;SDS011;1924;48.078;11.516;2022-10-26T14:41:46;30.50;;;0.70;;
3817;SDS011;1924;48.078;11.516;2022-10-26T14:44:17;30.80;;;0.80;;
3817;SDS011;1924;48.078;11.516;2022-10-26T14:46:46;30.57;;;0.70;;
3817;SDS011;1924;48.078;11.516;2022-10-26T14:49:15;30.60;;;0.80;;
3817;SDS011;1924;48.078;11.516;2022-10-26T14:51:44;30.57;;;0.77;;
3817;SDS011;1924;48.078;11.516;2022-10-26T14:54:18;30.47;;;0.77;;
3817;SDS011;1924;48.078;11.516;2022-10-26T14:56:46;30.47;;;0.70;;
3817;SDS011;1924;48.078;11.516;2022-10-26T14:59:19;30.70;;;0.80;;
3817;SDS011;1924;48.078;11.516;2022-10-26T15:01:50;30.80;;;0.70;;
3817;SDS011;1924;48.078;11.516;2022-10-26T15:04:29;30.50;;;0.80;;
3817;SDS011;1924;48.078;11.516;2022-10-26T15:07:06;30.70;;;0.70;;
3817;SDS011;1924;48.078;11.516;2022-10-26T15:09:38;30.80;;;0.73;;
3817;SDS011;1924;48.078;11.516;2022-10-26T15:12:16;30.60;;;0.80;;
3817;SDS011;1924;48.078;11.516;2022-10-26T15:14:46;30.67;;;0.70;;
3817;SDS011;1924;48.078;11.516;2022-10-26T15:17:17;30.80;;;0.80;;
3817;SDS011;1924;48.078;11.516;2022-10-26T15:19:47;30.83;;;0.80;;
3817;SDS011;1924;48.078;11.516;2022-10-26T15:22:18;30.77;;;0.80;;
3817;SDS011;1924;48.078;11.516;2022-10-26T15:24:49;30.70;;;0.77;;
3817;SDS011;1924;48.078;11.516;2022-10-26T15:27:18;30.77;;;0.77;;
3817;SDS011;1924;48.078;11.516;2022-10-26T15:29:48;30.80;;;0.80;;
3817;SDS011;1924;48.078;11.516;2022-10-26T15:32:27;30.77;;;0.80;;
3817;SDS011;1924;48.078;11.516;2022-10-26T15:37:53;30.70;;;0.80;;
3817;SDS011;1924;48.078;11.516;2022-10-26T15:40:22;30.70;;;0.70;;
3817;SDS011;1924;48.078;11.516;2022-10-26T15:42:51;30.60;;;0.80;;
3817;SDS011;1924;48.078;11.516;2022-10-26T15:45:22;30.60;;;0.80;;
3817;SDS011;1924;48.078;11.516;2022-10-26T15:47:51;30.70;;;0.73;;
3817;SDS011;1924;48.078;11.516;2022-10-26T15:50:20;30.60;;;0.73;;
3817;SDS011;1924;48.078;11.516;2022-10-26T15:52:48;30.57;;;0.80;;
3817;SDS011;1924;48.078;11.516;2022-10-26T15:55:15;30.70;;;0.80;;
3817;SDS011;1924;48.078;11.516;2022-10-26T15:57:42;30.53;;;0.77;;
3817;SDS011;1924;48.078;11.516;2022-10-26T16:00:13;30.70;;;0.70;;
3817;SDS011;1924;48.078;11.516;2022-10-26T16:02:43;30.70;;;0.80;;
3817;SDS011;1924;48.078;11.516;2022-10-26T16:05:11;30.50;;;0.80;;
3817;SDS011;1924;48.078;11.516;2022-10-26T16:07:40;30.50;;;0.80;;
3817;SDS011;1924;48.078;11.516;2022-10-26T16:10:11;30.80;;;0.80;;
3817;SDS011;1924;48.078;11.516;2022-10-26T16:12:40;30.70;;;0.80;;
3817;SDS011;1924;48.078;11.516;2022-10-26T16:15:08;30.60;;;0.80;;
3817;SDS011;1924;48.078;11.516;2022-10-26T16:17:41;30.70;;;0.80;;
3817;SDS011;1924;48.078;11.516;2022-10-26T16:20:10;30.30;;;0.70;;
3817;SDS011;1924;48.078;11.516;2022-10-26T16:22:39;30.60;;;0.70;;
3817;SDS011;1924;48.078;11.516;2022-10-26T16:25:11;30.47;;;0.73;;
3817;SDS011;1924;48.078;11.516;2022-10-26T16:27:38;30.60;;;0.70;;
3817;SDS011;1924;48.078;11.516;2022-10-26T16:30:05;30.60;;;0.80;;
3817;SDS011;1924;48.078;11.516;2022-10-26T16:32:33;30.70;;;0.80;;
3817;SDS011;1924;48.078;11.516;2022-10-26T16:35:01;30.43;;;0.70;;
3817;SDS011;1924;48.078;11.516;2022-10-26T16:37:28;30.67;;;0.70;;
3817;SDS011;1924;48.078;11.516;2022-10-26T16:39:56;30.40;;;0.80;;
3817;SDS011;1924;48.078;11.516;2022-10-26T16:42:23;30.47;;;0.80;;
3817;SDS011;1924;48.078;11.516;2022-10-26T16:44:49;30.43;;;0.70;;
3817;SDS011;1924;48.078;11.516;2022-10-26T16:47:16;30.60;;;0.80;;
3817;SDS011;1924;48.078;11.516;2022-10-26T16:49:43;30.60;;;0.80;;
3817;SDS011;1924;48.078;11.516;2022-10-26T16:52:11;30.30;;;0.73;;
3817;SDS011;1924;48.078;11.516;2022-10-26T16:54:38;30.70;;;0.80;;
3817;SDS011;1924;48.078;11.516;2022-10-26T16:57:05;30.60;;;0.80;;
3817;SDS011;1924;48.078;11.516;2022-10-26T16:59:32;30.57;;;0.80;;
3817;SDS011;1924;48.078;11.516;2022-10-26T17:01:59;30.57;;;0.77;;
3817;SDS011;1924;48.078;11.516;2022-10-26T17:04:26;30.70;;;0.80;;
3817;SDS011;1924;48.078;11.516;2022-10-26T17:06:53;30.60;;;0.70;;
3817;SDS011;1924;48.078;11.516;2022-10-26T17:09:21;30.50;;;0.80;;
3817;SDS011;1924;48.078;11.516;2022-10-26T17:11:48;30.50;;;0.80;;
3817;SDS011;1924;48.078;11.516;2022-10-26T17:14:15;30.57;;;0.80;;
3817;SDS011;1924;48.078;11.516;2022-10-26T17:16:42;30.70;;;0.80;;